Time;durP1;ratioP1;P1;durP2;ratioP2;P2;SDS_P1;SDS_P2;PMS_P1;PMS_P2;Temp;Humidity;BMP_temperature;BMP_pressure;BME280_temperature;BME280_humidity;BME280_pressure;Samples;Min_cycle;Max_cycle;Signal;HPM_P1;HPM_P2
2023/04/17 00:01:29;;;;;;;2.40;1.40;;;;;;;16.57;63.13;100437.31;12793960;22;99127;-76
2023/04/17 00:06:33;;;;;;;2.92;1.55;;;;;;;16.61;62.12;100433.53;12794905;22;99440;-76
2023/04/17 00:11:38;;;;;;;2.47;1.73;;;;;;;16.64;62.33;100431.56;12793763;22;99403;-76
2023/04/17 00:16:40;;;;;;;;;;;;;;;16.50;63.16;100431.53;12794663;22;98659;-77
2023/04/17 00:21:44;;;;;;;2.30;1.75;;;;;;;16.40;63.03;100429.53;12792478;22;97919;-76
2023/04/17 00:26:48;;;;;;;4.45;1.85;;;;;;;16.38;62.88;100424.28;12793856;22;99028;-77
2023/04/17 00:31:52;;;;;;;3.97;2.13;;;;;;;16.18;63.54;100440.56;12793521;22;99100;-76
2023/04/17 00:36:55;;;;;;;3.53;1.80;;;;;;;16.05;64.65;100436.91;12793665;22;98975;-76
2023/04/17 00:42:00;;;;;;;4.57;2.22;;;;;;;15.83;65.36;100434.69;12793759;22;97486;-77
2023/04/17 00:47:03;;;;;;;3.58;2.13;;;;;;;15.70;65.74;100423.06;12793854;22;99037;-77
2023/04/17 00:52:07;;;;;;;2.58;1.80;;;;;;;15.64;66.13;100425.22;12793717;22;99121;-77
2023/04/17 00:57:12;;;;;;;2.92;1.95;;;;;;;15.64;65.73;100423.41;12794669;22;99016;-76
2023/04/17 01:02:15;;;;;;;3.08;1.80;;;;;;;15.43;66.61;100423.78;12790315;22;99086;-76
2023/04/17 01:07:19;;;;;;;4.05;2.08;;;;;;;15.44;66.58;100425.50;12793444;22;97757;-76
2023/04/17 01:12:25;;;;;;;4.13;2.33;;;;;;;15.38;66.44;100417.88;12792101;22;98608;-76
2023/04/17 01:17:28;;;;;;;3.53;1.92;;;;;;;15.37;66.42;100424.13;12793365;22;99208;-77
2023/04/17 01:22:31;;;;;;;2.78;2.00;;;;;;;15.29;66.48;100411.31;12793489;22;98993;-77
2023/04/17 01:27:36;;;;;;;3.05;1.80;;;;;;;15.09;67.23;100414.19;12793317;22;99014;-77
2023/04/17 01:32:40;;;;;;;3.25;1.92;;;;;;;14.99;67.34;100407.66;12793121;22;99146;-77
2023/04/17 01:37:43;;;;;;;2.70;1.60;;;;;;;14.90;68.28;100410.84;12792980;22;98910;-77
2023/04/17 01:42:48;;;;;;;2.55;1.80;;;;;;;14.83;68.37;100409.47;12793140;22;99482;-76
2023/04/17 01:47:51;;;;;;;3.65;1.88;;;;;;;14.86;68.11;100403.13;12794103;22;98959;-76
2023/04/17 01:52:54;;;;;;;3.53;2.30;;;;;;;14.67;69.03;100409.44;12792840;22;99094;-76
2023/04/17 01:57:59;;;;;;;3.22;2.05;;;;;;;14.67;69.09;100403.28;12792846;22;98750;-77
2023/04/17 02:03:02;;;;;;;3.53;2.03;;;;;;;14.59;69.56;100401.03;12791708;22;99019;-76
2023/04/17 02:08:06;;;;;;;4.80;2.08;;;;;;;14.62;69.25;100405.31;12792923;22;98890;-76
2023/04/17 02:13:11;;;;;;;5.15;2.08;;;;;;;14.52;69.67;100402.28;12793134;22;98970;-77
2023/04/17 02:18:14;;;;;;;3.22;2.15;;;;;;;14.56;69.47;100400.34;12792700;22;98881;-76
2023/04/17 02:23:17;;;;;;;3.03;1.92;;;;;;;14.48;69.46;100395.47;12792892;22;99135;-77
2023/04/17 02:28:22;;;;;;;3.40;1.80;;;;;;;14.43;69.36;100394.84;12792593;22;99209;-77
2023/04/17 02:33:25;;;;;;;5.15;2.25;;;;;;;14.35;69.37;100397.03;12792401;22;99176;-76
2023/04/17 02:38:29;;;;;;;3.95;1.90;;;;;;;14.53;68.31;100390.78;12793729;22;99014;-77
2023/04/17 02:43:33;;;;;;;4.03;1.67;;;;;;;14.88;65.43;100388.00;12793182;22;99661;-77
2023/04/17 02:48:37;;;;;;;2.97;1.40;;;;;;;15.29;63.18;100386.56;12792494;22;98903;-76
2023/04/17 02:53:40;;;;;;;3.92;1.42;;;;;;;15.56;61.56;100396.47;12791238;22;98879;-76
2023/04/17 02:58:45;;;;;;;2.72;1.50;;;;;;;15.77;60.09;100389.03;12791911;22;98028;-76
2023/04/17 03:03:48;;;;;;;2.55;1.63;;;;;;;15.93;59.18;100379.25;12792251;22;99151;-76
2023/04/17 03:08:51;;;;;;;3.63;1.60;;;;;;;16.03;58.37;100372.44;12791843;22;98986;-77
2023/04/17 03:13:56;;;;;;;2.13;1.30;;;;;;;16.09;57.78;100368.56;12791940;22;99188;-76
2023/04/17 03:19:01;;;;;;;4.03;1.50;;;;;;;16.18;57.07;100371.53;12791941;22;99067;-76
2023/04/17 03:24:05;;;;;;;2.80;1.50;;;;;;;16.28;56.47;100374.47;12793214;22;99347;-77
2023/04/17 03:29:10;;;;;;;3.00;1.42;;;;;;;16.35;56.05;100366.03;12793858;22;99213;-76
2023/04/17 03:34:14;;;;;;;3.33;1.63;;;;;;;16.33;55.93;100361.75;12794080;22;99164;-76
2023/04/17 03:39:17;;;;;;;1.75;1.20;;;;;;;16.32;55.12;100362.72;12794551;22;97933;-76
2023/04/17 03:44:22;;;;;;;2.92;1.38;;;;;;;16.37;54.73;100363.28;12793104;22;99379;-77
2023/04/17 03:49:25;;;;;;;1.67;1.13;;;;;;;16.34;54.82;100360.84;12793254;22;97855;-76
2023/04/17 03:54:28;;;;;;;3.33;1.45;;;;;;;16.36;54.28;100359.78;12793559;22;98895;-77
2023/04/17 03:59:33;;;;;;;1.90;1.17;;;;;;;16.31;54.79;100363.66;12794120;22;99212;-77
2023/04/17 04:04:36;;;;;;;1.67;1.30;;;;;;;16.30;54.53;100378.75;12793877;22;98952;-76
2023/04/17 04:09:40;;;;;;;2.90;1.50;;;;;;;16.20;54.58;100377.63;12794250;22;98546;-76
2023/04/17 04:14:44;;;;;;;3.20;1.33;;;;;;;16.17;55.20;100375.13;12793607;22;99020;-76
2023/04/17 04:19:48;;;;;;;1.55;1.13;;;;;;;16.04;55.28;100374.16;12794897;22;99034;-77
2023/04/17 04:24:52;;;;;;;2.17;1.38;;;;;;;16.03;55.59;100374.25;12793671;22;99125;-76
2023/04/17 04:29:58;;;;;;;3.90;1.40;;;;;;;15.94;55.41;100383.63;12793857;22;99059;-77
2023/04/17 04:35:02;;;;;;;3.45;1.20;;;;;;;15.93;55.84;100378.41;12791312;22;99222;-76
2023/04/17 04:40:09;;;;;;;1.70;1.27;;;;;;;15.78;56.35;100389.00;12793551;22;99019;-77
2023/04/17 04:45:14;;;;;;;2.20;1.40;;;;;;;15.64;57.05;100378.31;12793635;22;97862;-76
2023/04/17 04:50:18;;;;;;;2.08;1.38;;;;;;;15.64;56.68;100382.75;12793336;22;98986;-77
2023/04/17 04:55:22;;;;;;;3.13;1.30;;;;;;;15.61;56.98;100397.03;12793176;22;98829;-76
2023/04/17 05:00:26;;;;;;;2.20;1.27;;;;;;;15.59;56.94;100393.66;12793593;22;98936;-77
2023/04/17 05:05:30;;;;;;;3.42;1.50;;;;;;;15.63;56.64;100397.81;12793441;22;99001;-77
2023/04/17 05:10:33;;;;;;;2.35;1.40;;;;;;;15.72;56.00;100393.78;12794444;22;99114;-77
2023/04/17 05:15:38;;;;;;;1.80;1.30;;;;;;;15.60;56.52;100402.44;12793269;22;98879;-77
2023/04/17 05:20:41;;;;;;;3.22;1.48;;;;;;;15.30;58.45;100405.03;12793883;22;99557;-77
2023/04/17 05:25:44;;;;;;;4.07;1.58;;;;;;;15.25;59.25;100403.59;12791983;22;99436;-76
2023/04/17 05:30:49;;;;;;;2.00;1.40;;;;;;;15.31;58.60;100413.88;12792982;22;99209;-77
2023/04/17 05:35:52;;;;;;;2.47;1.30;;;;;;;15.34;57.98;100411.91;12791876;22;98943;-77
2023/04/17 05:40:58;;;;;;;2.53;1.42;;;;;;;15.42;57.55;100425.59;12793584;22;99452;-77
2023/04/17 05:46:03;;;;;;;3.85;2.20;;;;;;;15.31;58.54;100416.50;12789549;22;97580;-77
2023/04/17 05:51:06;;;;;;;4.55;2.17;;;;;;;15.44;56.79;100422.84;12793451;22;99273;-76
2023/04/17 05:56:10;;;;;;;3.25;1.88;;;;;;;15.55;56.22;100431.91;12792988;22;98918;-76
2023/04/17 06:01:16;;;;;;;2.17;1.48;;;;;;;15.56;56.29;100440.72;12793745;22;98001;-76
2023/04/17 06:06:19;;;;;;;3.15;1.80;;;;;;;15.60;55.69;100443.09;12793124;22;98901;-77
2023/04/17 06:11:23;;;;;;;3.90;1.83;;;;;;;15.57;55.76;100442.41;12792851;22;98640;-77
2023/04/17 06:16:27;;;;;;;4.22;1.73;;;;;;;15.56;56.08;100451.31;12791469;22;99072;-77
2023/04/17 06:21:31;;;;;;;2.60;1.50;;;;;;;15.68;55.42;100464.72;12792834;22;99257;-77
2023/04/17 06:26:35;;;;;;;2.00;1.13;;;;;;;16.16;54.16;100457.53;12792811;22;99014;-77
2023/04/17 06:31:39;;;;;;;2.05;1.17;;;;;;;16.54;53.01;100467.59;12791956;22;98992;-77
2023/04/17 06:36:42;;;;;;;;;;;;;;;16.90;51.77;100464.47;12793194;22;99453;-77
2023/04/17 06:41:47;;;;;;;2.53;1.30;;;;;;;17.19;51.50;100470.66;12793179;22;98802;-76
2023/04/17 06:46:53;;;;;;;2.30;1.57;;;;;;;17.75;49.65;100473.19;12792571;22;99322;-77
2023/04/17 06:51:56;;;;;;;2.05;1.20;;;;;;;18.17;48.56;100475.69;12793013;22;99518;-77
2023/04/17 06:56:59;;;;;;;5.35;1.38;;;;;;;18.47;47.81;100478.97;12791018;22;97737;-77
2023/04/17 07:02:04;;;;;;;2.28;1.10;;;;;;;18.82;47.29;100484.53;12791121;22;98297;-77
2023/04/17 07:07:08;;;;;;;2.58;1.38;;;;;;;19.03;46.43;100485.69;12790887;22;99080;-77
2023/04/17 07:12:11;;;;;;;3.47;1.17;;;;;;;19.32;45.56;100484.47;12791619;22;99106;-77
2023/04/17 07:17:16;;;;;;;1.75;0.90;;;;;;;19.70;44.57;100487.91;12791340;22;97858;-77
2023/04/17 07:22:19;;;;;;;2.22;0.88;;;;;;;19.80;43.85;100490.78;12791396;22;98839;-77
2023/04/17 07:27:23;;;;;;;1.60;0.97;;;;;;;20.32;42.85;100489.44;12791765;22;99388;-77
2023/04/17 07:32:28;;;;;;;1.42;0.75;;;;;;;20.56;41.64;100485.88;12791097;22;98995;-78
2023/04/17 07:37:31;;;;;;;2.20;1.10;;;;;;;20.52;40.74;100484.41;12791376;22;98938;-78
2023/04/17 07:42:35;;;;;;;2.47;1.20;;;;;;;20.77;40.22;100481.56;12792783;22;99184;-78
2023/04/17 07:47:39;;;;;;;2.63;1.10;;;;;;;20.98;39.07;100478.03;12790848;22;99016;-78
2023/04/17 07:52:43;;;;;;;1.02;0.77;;;;;;;21.00;38.26;100481.44;12791016;22;98956;-78
2023/04/17 07:57:46;;;;;;;2.55;1.00;;;;;;;21.25;37.62;100475.88;12789527;22;98618;-78
2023/04/17 08:02:51;;;;;;;2.60;1.23;;;;;;;21.01;37.86;100474.28;12790624;22;99324;-78
2023/04/17 08:07:54;;;;;;;3.67;0.98;;;;;;;21.10;38.09;100468.19;12791655;22;98972;-77
2023/04/17 08:12:58;;;;;;;1.90;1.00;;;;;;;21.49;37.07;100470.38;12793735;22;98934;-78
2023/04/17 08:18:03;;;;;;;3.20;1.33;;;;;;;21.81;36.27;100465.94;12794220;22;98953;-78
2023/04/17 08:23:06;;;;;;;2.08;1.00;;;;;;;21.78;35.66;100463.47;12791231;22;99143;-77
2023/04/17 08:28:10;;;;;;;1.50;0.87;;;;;;;22.11;35.27;100458.03;12793218;22;97820;-78
2023/04/17 08:33:15;;;;;;;2.30;1.00;;;;;;;22.29;34.40;100461.88;12794045;22;99009;-78
2023/04/17 08:38:19;;;;;;;2.30;0.88;;;;;;;22.61;33.98;100449.22;12793845;22;99056;-78
2023/04/17 08:43:24;;;;;;;3.40;1.63;;;;;;;22.49;33.09;100444.06;12793617;22;98998;-78
2023/04/17 08:48:31;;;;;;;2.30;1.10;;;;;;;22.70;32.37;100441.38;12792232;22;97912;-78
2023/04/17 08:53:34;;;;;;;1.92;1.00;;;;;;;23.08;32.04;100450.50;12792349;22;97864;-78
2023/04/17 08:58:37;;;;;;;2.70;1.00;;;;;;;22.63;32.27;100436.53;12793777;22;99003;-77
2023/04/17 09:03:44;;;;;;;4.90;1.87;;;;;;;23.12;31.91;100434.97;12793292;22;99012;-78
2023/04/17 09:08:59;;;;;;;2.17;1.00;;;;;;;23.03;30.79;100427.72;12793392;22;98980;-78
2023/04/17 09:14:02;;;;;;;1.98;0.80;;;;;;;23.65;30.92;100428.34;12793524;22;98933;-78
2023/04/17 09:19:07;;;;;;;1.20;0.87;;;;;;;23.76;30.02;100432.75;12793190;22;98901;-78
2023/04/17 09:24:11;;;;;;;2.58;0.88;;;;;;;24.19;29.32;100444.78;12794091;22;99072;-78
2023/04/17 09:29:15;;;;;;;;;;;;;;;24.03;29.10;100435.59;12793959;22;99267;-78
2023/04/17 09:34:20;;;;;;;3.23;1.13;;;;;;;24.63;28.39;100432.59;12792874;22;98918;-78
2023/04/17 09:39:24;;;;;;;1.92;0.90;;;;;;;24.86;27.00;100431.25;12792025;22;99270;-78
2023/04/17 09:44:28;;;;;;;0.87;0.60;;;;;;;24.92;26.79;100427.97;12793429;22;99028;-78
2023/04/17 09:49:40;;;;;;;0.98;0.50;;;;;;;25.35;26.88;100424.66;12793414;22;98947;-78
2023/04/17 09:54:45;;;;;;;1.70;0.70;;;;;;;25.31;26.41;100407.94;12792766;22;99119;-78
2023/04/17 09:59:48;;;;;;;1.58;0.65;;;;;;;25.49;25.63;100416.94;12793308;22;98964;-78
2023/04/17 10:04:54;;;;;;;1.92;0.60;;;;;;;25.22;25.04;100405.31;12792901;22;99054;-78
2023/04/17 10:09:59;;;;;;;1.42;0.60;;;;;;;25.14;24.71;100406.06;12792436;22;99006;-78
2023/04/17 10:15:06;;;;;;;4.00;0.88;;;;;;;25.44;25.67;100400.38;12793811;22;99354;-78
2023/04/17 10:20:36;;;;;;;1.65;0.80;;;;;;;25.49;25.27;100389.97;12792155;22;98085;-78
2023/04/17 10:25:40;;;;;;;1.38;0.63;;;;;;;25.73;25.56;100392.94;12771922;22;99030;-78
2023/04/17 10:30:52;;;;;;;1.23;0.80;;;;;;;25.69;23.87;100388.03;12790530;22;99155;-78
2023/04/17 10:35:58;;;;;;;1.05;0.60;;;;;;;26.17;24.08;100377.69;12792207;22;99000;-78
2023/04/17 10:41:04;;;;;;;1.70;0.80;;;;;;;26.07;23.21;100374.22;12792556;22;98922;-78
2023/04/17 10:46:10;;;;;;;1.33;0.68;;;;;;;25.84;22.87;100368.47;12792383;22;98962;-78
2023/04/17 10:51:43;;;;;;;3.55;0.80;;;;;;;25.82;22.77;100365.06;12792165;22;98995;-78
2023/04/17 10:56:47;;;;;;;1.58;0.68;;;;;;;26.41;22.63;100369.78;12792075;22;99326;-78
2023/04/17 11:02:02;;;;;;;1.65;0.47;;;;;;;26.11;21.79;100355.88;12791412;22;99061;-78
2023/04/17 11:07:08;;;;;;;1.27;0.60;;;;;;;26.45;22.90;100360.38;12790735;22;99106;-78
2023/04/17 11:12:12;;;;;;;2.20;1.08;;;;;;;26.42;21.80;100347.19;12791918;22;98996;-78
2023/04/17 11:17:16;;;;;;;1.33;0.63;;;;;;;26.58;22.64;100355.38;12792471;22;98503;-78
2023/04/17 11:22:21;;;;;;;1.43;0.70;;;;;;;26.72;22.52;100340.44;12790425;22;99028;-78
2023/04/17 11:27:25;;;;;;;0.95;0.60;;;;;;;26.66;21.76;100341.09;12791954;22;98987;-78
2023/04/17 11:32:36;;;;;;;0.83;0.40;;;;;;;26.33;21.71;100325.69;12791188;22;99264;-78
2023/04/17 11:38:11;;;;;;;1.30;0.50;;;;;;;26.68;21.44;100322.88;12790828;22;97913;-78
2023/04/17 11:43:16;;;;;;;2.35;0.60;;;;;;;26.61;21.22;100316.44;12792063;22;97936;-77
2023/04/17 11:48:22;;;;;;;1.60;0.50;;;;;;;26.71;21.79;100314.44;12794661;22;98575;-77
2023/04/17 11:53:27;;;;;;;1.17;0.60;;;;;;;26.57;21.73;100291.63;12793631;22;98901;-78
2023/04/17 11:58:31;;;;;;;2.17;0.50;;;;;;;26.68;22.31;100285.91;12795139;22;99524;-78
2023/04/17 12:03:35;;;;;;;2.10;0.70;;;;;;;26.70;21.76;100275.78;12793794;22;98955;-78
2023/04/17 12:08:45;;;;;;;2.42;0.80;;;;;;;26.46;22.81;100255.94;12793964;22;98886;-78
2023/04/17 12:13:49;;;;;;;2.33;0.73;;;;;;;26.46;22.51;100255.94;12792395;22;99484;-78
2023/04/17 12:18:52;;;;;;;3.37;0.63;;;;;;;26.20;22.80;100245.16;12794529;22;99407;-78
2023/04/17 12:23:57;;;;;;;2.22;0.70;;;;;;;26.15;23.07;100242.09;12793852;22;98902;-78
2023/04/17 12:29:00;;;;;;;1.88;0.90;;;;;;;26.11;22.81;100229.09;12793756;22;98967;-77
2023/04/17 12:34:03;;;;;;;2.60;0.80;;;;;;;26.26;22.48;100219.38;12793389;22;99137;-78
2023/04/17 12:39:08;;;;;;;1.75;0.73;;;;;;;26.31;23.60;100209.81;12793903;22;98904;-78
2023/04/17 12:44:11;;;;;;;1.67;0.90;;;;;;;26.41;22.99;100215.09;12793315;22;98880;-77
2023/04/17 12:49:15;;;;;;;0.98;0.73;;;;;;;26.27;23.11;100197.63;12794732;22;99122;-78
2023/04/17 12:54:19;;;;;;;2.37;0.73;;;;;;;26.60;24.13;100204.91;12792572;22;98723;-78
2023/04/17 12:59:23;;;;;;;1.40;0.80;;;;;;;26.60;24.02;100191.41;12793723;22;98921;-77
2023/04/17 13:04:26;;;;;;;1.90;0.90;;;;;;;26.52;23.49;100190.53;12792105;22;99213;-77
2023/04/17 13:09:31;;;;;;;1.77;0.80;;;;;;;26.86;23.81;100175.94;12793740;22;99105;-77
2023/04/17 13:14:34;;;;;;;1.92;0.80;;;;;;;26.92;23.48;100179.84;12793352;22;97920;-78
2023/04/17 13:19:38;;;;;;;2.92;0.90;;;;;;;26.92;23.76;100180.66;12793650;22;98972;-77
2023/04/17 13:24:43;;;;;;;1.77;0.90;;;;;;;26.99;22.65;100161.94;12793938;22;99116;-78
2023/04/17 13:29:46;;;;;;;1.35;0.80;;;;;;;27.21;23.01;100153.22;12792502;22;97951;-77
2023/04/17 13:34:50;;;;;;;3.17;0.90;;;;;;;27.13;23.41;100153.19;12793398;22;99240;-78
2023/04/17 13:39:54;;;;;;;1.80;1.00;;;;;;;27.22;23.41;100146.78;12794208;22;98958;-77
2023/04/17 13:44:57;;;;;;;1.98;0.90;;;;;;;27.51;23.99;100138.16;12793387;22;99442;-78
2023/04/17 13:50:01;;;;;;;0.63;0.60;;;;;;;27.59;23.55;100130.03;12793094;22;97715;-77
2023/04/17 13:55:10;;;;;;;1.55;0.77;;;;;;;27.68;22.97;100119.06;12791413;22;97890;-77
2023/04/17 14:00:14;;;;;;;1.42;0.82;;;;;;;27.61;23.19;100109.91;12793237;22;98975;-78
2023/04/17 14:05:18;;;;;;;2.03;0.90;;;;;;;27.78;23.64;100105.34;12792749;22;98901;-77
2023/04/17 14:10:23;;;;;;;1.10;0.77;;;;;;;27.90;23.83;100099.38;12792389;22;99979;-77
2023/04/17 14:15:26;;;;;;;1.52;0.90;;;;;;;28.01;23.37;100092.75;12792687;22;98910;-78
2023/04/17 14:20:29;;;;;;;2.92;1.00;;;;;;;28.33;23.64;100092.59;12793073;22;98921;-78
2023/04/17 14:25:34;;;;;;;1.77;0.85;;;;;;;28.32;23.84;100090.09;12793254;22;99267;-78
2023/04/17 14:30:37;;;;;;;2.65;0.98;;;;;;;28.63;23.47;100078.22;12793609;22;99060;-78
2023/04/17 14:35:40;;;;;;;2.53;0.93;;;;;;;28.37;23.43;100071.44;12792546;22;98951;-77
2023/04/17 14:40:45;;;;;;;2.17;1.17;;;;;;;28.29;23.48;100061.50;12791800;22;97906;-78
2023/04/17 14:45:50;;;;;;;2.00;0.90;;;;;;;28.54;23.14;100049.50;12791165;22;99127;-77
2023/04/17 14:50:53;;;;;;;1.48;1.10;;;;;;;28.70;24.43;100048.53;12791830;22;98984;-78
2023/04/17 14:55:59;;;;;;;1.60;0.98;;;;;;;28.45;22.78;100042.44;12792929;22;99105;-78
2023/04/17 15:01:02;;;;;;;1.40;0.98;;;;;;;28.45;22.69;100033.47;12792096;22;97742;-78
2023/04/17 15:06:06;;;;;;;1.63;0.95;;;;;;;28.61;23.15;100034.22;12792570;22;97962;-78
2023/04/17 15:11:10;;;;;;;1.50;0.98;;;;;;;28.44;23.48;100023.69;12792057;22;99381;-77
2023/04/17 15:16:14;;;;;;;2.55;1.25;;;;;;;28.59;23.68;100016.44;12789399;22;99216;-77
2023/04/17 15:21:18;;;;;;;2.33;1.20;;;;;;;28.74;22.38;100014.66;12794788;22;99021;-78
2023/04/17 15:26:23;;;;;;;2.40;1.10;;;;;;;28.65;22.81;100005.75;12794428;22;98030;-77
2023/04/17 15:31:26;;;;;;;2.15;1.40;;;;;;;28.49;22.38;100008.59;12794052;22;98881;-77
2023/04/17 15:36:31;;;;;;;2.10;1.30;;;;;;;28.59;22.50;99997.50;12792984;22;98998;-78
2023/04/17 15:41:39;;;;;;;1.25;1.15;;;;;;;28.66;21.71;99988.47;12795037;22;98911;-78
2023/04/17 15:46:42;;;;;;;1.55;1.23;;;;;;;28.74;21.49;99985.69;12795083;22;98903;-78
2023/04/17 15:51:45;;;;;;;2.92;1.52;;;;;;;28.57;22.58;99980.59;12794120;22;98990;-77
2023/04/17 15:56:50;;;;;;;2.45;1.30;;;;;;;28.78;23.10;99970.75;12792591;22;99080;-77
2023/04/17 16:01:53;;;;;;;2.40;1.33;;;;;;;28.87;21.98;99969.66;12794106;22;99080;-77
2023/04/17 16:06:57;;;;;;;3.97;1.50;;;;;;;28.71;22.32;99967.09;12791506;22;98269;-78
2023/04/17 16:12:04;;;;;;;2.25;1.40;;;;;;;28.63;23.04;99959.06;12795241;22;97985;-78
2023/04/17 16:17:07;;;;;;;1.77;1.20;;;;;;;28.57;23.71;99950.78;12794278;22;99018;-77
2023/04/17 16:22:10;;;;;;;2.00;1.50;;;;;;;28.52;23.44;99945.09;12794185;22;99127;-78
2023/04/17 16:27:15;;;;;;;2.47;1.30;;;;;;;28.50;23.23;99942.56;12793452;22;98846;-78
2023/04/17 16:32:19;;;;;;;2.40;1.65;;;;;;;28.39;23.48;99939.47;12793600;22;97861;-78
2023/04/17 16:37:22;;;;;;;1.95;1.30;;;;;;;28.41;24.70;99937.41;12793437;22;97822;-78
2023/04/17 16:42:27;;;;;;;2.58;1.30;;;;;;;28.22;24.10;99927.88;12791017;22;99287;-78
2023/04/17 16:47:31;;;;;;;3.25;1.50;;;;;;;28.15;24.96;99924.25;12793775;22;98786;-77
2023/04/17 16:52:35;;;;;;;3.63;1.45;;;;;;;28.05;26.38;99924.47;12793236;22;99295;-78
2023/04/17 16:57:42;;;;;;;2.38;1.40;;;;;;;28.03;27.66;99920.25;12793523;22;99011;-77
2023/04/17 17:02:45;;;;;;;3.50;1.73;;;;;;;27.88;27.88;99905.81;12794683;22;98981;-78
2023/04/17 17:07:49;;;;;;;3.13;1.50;;;;;;;27.89;29.00;99902.09;12793927;22;98971;-77
2023/04/17 17:12:54;;;;;;;4.18;2.10;;;;;;;27.90;28.29;99903.78;12793375;22;99242;-78
2023/04/17 17:17:57;;;;;;;3.70;1.33;;;;;;;27.91;27.14;99902.75;12792398;22;98945;-77
2023/04/17 17:23:00;;;;;;;2.15;1.40;;;;;;;27.84;27.88;99899.09;12793008;22;98987;-78
2023/04/17 17:28:05;;;;;;;4.38;1.88;;;;;;;27.72;28.84;99897.78;12793536;22;99349;-78
2023/04/17 17:33:08;;;;;;;2.55;1.40;;;;;;;27.68;30.03;99891.94;12792995;22;98800;-77
2023/04/17 17:38:12;;;;;;;2.08;1.45;;;;;;;27.66;30.20;99884.97;12792514;22;98130;-78
2023/04/17 17:43:16;;;;;;;3.60;1.70;;;;;;;27.67;30.61;99889.38;12792793;22;98028;-77
2023/04/17 17:48:20;;;;;;;3.00;1.90;;;;;;;27.47;32.03;99888.97;12792592;22;97817;-77
2023/04/17 17:53:23;;;;;;;4.13;1.90;;;;;;;27.48;29.91;99892.50;12793775;22;99315;-78
2023/04/17 17:58:30;;;;;;;3.53;2.10;;;;;;;27.42;29.96;99887.81;12792245;22;99016;-78
2023/04/17 18:03:34;;;;;;;4.35;2.10;;;;;;;27.26;30.47;99886.03;12793053;22;98847;-77
2023/04/17 18:08:37;;;;;;;;;;;;;;;27.00;30.54;99878.16;12792035;22;98865;-78
2023/04/17 18:13:42;;;;;;;2.95;2.08;;;;;;;26.86;31.38;99884.28;12792436;22;99113;-77
2023/04/17 18:18:45;;;;;;;2.83;2.00;;;;;;;26.55;32.65;99883.34;12793602;22;99301;-78
2023/04/17 18:23:48;;;;;;;3.43;2.27;;;;;;;26.32;32.40;99889.56;12793049;22;99208;-77
2023/04/17 18:28:53;;;;;;;4.17;2.37;;;;;;;26.09;32.79;99892.06;12792857;22;98913;-77
2023/04/17 18:34:00;;;;;;;7.22;2.28;;;;;;;25.95;32.98;99889.22;12792230;22;99322;-77
2023/04/17 18:39:04;;;;;;;4.00;2.22;;;;;;;25.67;34.59;99900.28;12792765;22;98872;-77
2023/04/17 18:44:08;;;;;;;3.20;2.60;;;;;;;25.42;35.36;99892.25;12793523;22;99076;-77
2023/04/17 18:49:12;;;;;;;3.78;2.50;;;;;;;25.16;36.38;99903.09;12792421;22;98901;-77
2023/04/17 18:54:15;;;;;;;3.07;2.00;;;;;;;24.75;38.83;99904.72;12791202;22;97803;-77
2023/04/17 18:59:20;;;;;;;3.65;2.58;;;;;;;24.25;41.52;99905.50;12791086;22;98943;-77
2023/04/17 19:04:23;;;;;;;6.07;2.72;;;;;;;23.89;43.13;99898.44;12791043;22;97794;-77
2023/04/17 19:09:26;;;;;;;4.60;2.20;;;;;;;23.52;44.02;99907.44;12792248;22;98958;-77
2023/04/17 19:14:32;;;;;;;4.97;2.90;;;;;;;23.24;44.55;99904.91;12789403;22;98970;-77
2023/04/17 19:19:35;;;;;;;5.20;2.92;;;;;;;23.01;44.79;99909.00;12791597;22;99000;-77
2023/04/17 19:24:38;;;;;;;3.40;2.55;;;;;;;22.81;44.81;99912.72;12792010;22;99504;-77
2023/04/17 19:29:43;;;;;;;4.70;2.60;;;;;;;22.67;45.14;99910.47;12791856;22;98925;-77
2023/04/17 19:34:46;;;;;;;4.30;2.55;;;;;;;22.53;45.15;99917.13;12792128;22;98970;-77
2023/04/17 19:39:49;;;;;;;4.80;2.40;;;;;;;22.42;45.20;99918.16;12791580;22;98958;-77
2023/04/17 19:44:59;;;;;;;2.85;2.35;;;;;;;22.22;46.00;99924.53;12790903;22;99469;-77
2023/04/17 19:50:02;;;;;;;4.88;2.95;;;;;;;22.06;44.28;99934.97;12790228;22;98457;-77
2023/04/17 19:55:08;;;;;;;5.13;2.30;;;;;;;21.94;45.08;99936.06;12788918;22;99247;-77
2023/04/17 20:00:13;;;;;;;4.50;2.67;;;;;;;21.88;45.25;99933.09;12791219;22;99236;-77
2023/04/17 20:05:17;;;;;;;5.20;2.90;;;;;;;21.66;45.99;99936.84;12791898;22;99654;-77
2023/04/17 20:10:20;;;;;;;3.00;2.50;;;;;;;21.77;44.88;99941.25;12794105;22;97492;-77
2023/04/17 20:15:25;;;;;;;4.53;2.90;;;;;;;21.82;43.69;99947.88;12780270;22;99330;-77
2023/04/17 20:20:28;;;;;;;4.32;3.08;;;;;;;21.55;46.14;99955.75;12794521;22;97806;-77
2023/04/17 20:25:32;;;;;;;4.22;2.70;;;;;;;21.55;43.67;99950.38;12795219;22;98941;-77
2023/04/17 20:30:36;;;;;;;6.10;2.92;;;;;;;21.63;43.54;99955.88;12794056;22;99240;-77
2023/04/17 20:35:41;;;;;;;5.68;2.95;;;;;;;21.66;43.90;99955.59;12794072;22;99049;-77
2023/04/17 20:40:44;;;;;;;4.55;2.60;;;;;;;21.50;45.41;99963.34;12792662;22;98748;-77
2023/04/17 20:45:49;;;;;;;4.55;2.92;;;;;;;21.26;45.74;99960.13;12793840;22;98970;-77
2023/04/17 20:50:52;;;;;;;4.97;3.00;;;;;;;20.97;46.81;99964.47;12793773;22;99022;-77
2023/04/17 20:55:56;;;;;;;5.03;2.97;;;;;;;20.67;48.31;99972.47;12793743;22;99303;-77
2023/04/17 21:01:01;;;;;;;4.77;2.90;;;;;;;20.97;46.84;99975.16;12793573;22;99200;-77
2023/04/17 21:06:05;;;;;;;7.95;3.28;;;;;;;20.86;46.91;99977.94;12793991;22;98998;-77
2023/04/17 21:11:08;;;;;;;6.30;3.03;;;;;;;20.57;47.74;99972.41;12793406;22;98888;-77
2023/04/17 21:16:14;;;;;;;6.22;3.15;;;;;;;20.38;47.79;99969.59;12794118;22;99069;-77
2023/04/17 21:21:17;;;;;;;5.47;3.28;;;;;;;20.15;49.11;99965.31;12793378;22;97729;-77
2023/04/17 21:26:20;;;;;;;4.80;3.08;;;;;;;20.18;48.01;99962.38;12792477;22;98098;-77
2023/04/17 21:31:25;;;;;;;6.25;3.05;;;;;;;20.20;48.85;99963.94;12791745;22;98352;-77
2023/04/17 21:36:28;;;;;;;4.18;3.03;;;;;;;20.39;47.34;99964.09;12793495;22;98879;-77
2023/04/17 21:41:32;;;;;;;4.60;2.88;;;;;;;20.33;47.61;99970.00;12793314;22;99013;-77
2023/04/17 21:46:36;;;;;;;5.18;2.60;;;;;;;20.38;47.36;99963.41;12793566;22;99061;-77
2023/04/17 21:51:40;;;;;;;4.88;2.90;;;;;;;20.33;46.84;99959.31;12792533;22;96711;-77
2023/04/17 21:56:43;;;;;;;5.10;3.30;;;;;;;19.87;49.00;99956.06;12793430;22;97773;-77
2023/04/17 22:01:48;;;;;;;4.43;2.63;;;;;;;19.97;48.85;99954.31;12793024;22;98539;-77
2023/04/17 22:06:53;;;;;;;4.53;3.28;;;;;;;19.53;51.21;99959.78;12794325;22;99230;-77
2023/04/17 22:11:57;;;;;;;5.00;3.38;;;;;;;19.59;50.75;99958.44;12792992;22;99213;-77
2023/04/17 22:17:02;;;;;;;4.55;3.10;;;;;;;19.60;50.62;99954.78;12792156;22;98147;-77
2023/04/17 22:22:05;;;;;;;4.40;3.17;;;;;;;19.17;51.22;99952.03;12791971;22;99027;-77
2023/04/17 22:27:08;;;;;;;6.80;3.20;;;;;;;19.21;51.11;99951.66;12792540;22;98939;-77
2023/04/17 22:32:13;;;;;;;4.28;3.13;;;;;;;19.51;49.79;99951.03;12792743;22;99027;-77
2023/04/17 22:37:17;;;;;;;;;;;;;;;19.60;49.80;99950.28;12793457;22;99051;-77
2023/04/17 22:42:20;;;;;;;5.60;4.07;;;;;;;19.51;49.34;99950.22;12793047;22;99306;-77
2023/04/17 22:47:25;;;;;;;4.78;3.72;;;;;;;19.26;50.20;99944.16;12792854;22;99424;-77
2023/04/17 22:52:28;;;;;;;6.57;4.65;;;;;;;19.09;51.03;99939.28;12792531;22;98918;-77
2023/04/17 22:57:31;;;;;;;5.28;4.28;;;;;;;19.07;50.57;99945.72;12792452;22;97989;-77
2023/04/17 23:02:36;;;;;;;5.93;4.25;;;;;;;19.01;50.91;99943.53;12792087;22;99441;-77
2023/04/17 23:07:40;;;;;;;6.05;4.40;;;;;;;18.62;53.61;99944.00;12792890;22;98973;-76
2023/04/17 23:12:43;;;;;;;5.45;4.38;;;;;;;18.34;55.09;99953.22;12790753;22;99215;-76
2023/04/17 23:17:48;;;;;;;5.78;4.22;;;;;;;18.31;55.45;99953.47;12791403;22;98196;-76
2023/04/17 23:22:51;;;;;;;;;;;;;;;18.29;55.77;99944.72;12792794;22;98875;-76
2023/04/17 23:27:55;;;;;;;6.25;4.70;;;;;;;18.30;55.06;99941.09;12792835;22;99223;-77